sensor_id;sensor_type;location;lat;lon;timestamp;P1;durP1;ratioP1;P2;durP2;ratioP2
24151;SDS011;12311;50.866;4.332;2022-07-06T00:01:35;2.22;;;1.10;;
24151;SDS011;12311;50.866;4.332;2022-07-06T00:04:01;1.60;;;0.90;;
24151;SDS011;12311;50.866;4.332;2022-07-06T00:06:27;1.90;;;1.30;;
24151;SDS011;12311;50.866;4.332;2022-07-06T00:08:53;3.85;;;1.48;;
24151;SDS011;12311;50.866;4.332;2022-07-06T00:11:19;1.27;;;0.80;;
24151;SDS011;12311;50.866;4.332;2022-07-06T00:13:45;6.18;;;1.35;;
24151;SDS011;12311;50.866;4.332;2022-07-06T00:16:11;3.42;;;1.20;;
24151;SDS011;12311;50.866;4.332;2022-07-06T00:18:37;2.85;;;1.40;;
24151;SDS011;12311;50.866;4.332;2022-07-06T00:21:02;2.28;;;1.25;;
24151;SDS011;12311;50.866;4.332;2022-07-06T00:23:28;1.98;;;1.23;;
24151;SDS011;12311;50.866;4.332;2022-07-06T00:25:54;2.55;;;1.20;;
24151;SDS011;12311;50.866;4.332;2022-07-06T00:28:19;5.60;;;1.35;;
24151;SDS011;12311;50.866;4.332;2022-07-06T00:30:45;1.67;;;1.27;;
24151;SDS011;12311;50.866;4.332;2022-07-06T00:33:11;1.98;;;1.40;;
24151;SDS011;12311;50.866;4.332;2022-07-06T00:35:36;1.60;;;1.00;;
24151;SDS011;12311;50.866;4.332;2022-07-06T00:38:02;2.78;;;1.40;;
24151;SDS011;12311;50.866;4.332;2022-07-06T00:40:28;1.25;;;1.13;;
24151;SDS011;12311;50.866;4.332;2022-07-06T00:42:54;2.70;;;1.30;;
24151;SDS011;12311;50.866;4.332;2022-07-06T00:45:20;2.58;;;1.27;;
24151;SDS011;12311;50.866;4.332;2022-07-06T00:47:46;1.85;;;1.15;;
24151;SDS011;12311;50.866;4.332;2022-07-06T00:50:13;2.70;;;1.45;;
24151;SDS011;12311;50.866;4.332;2022-07-06T00:52:47;5.18;;;1.38;;
24151;SDS011;12311;50.866;4.332;2022-07-06T00:55:13;1.85;;;1.25;;
24151;SDS011;12311;50.866;4.332;2022-07-06T00:57:41;3.30;;;1.20;;
24151;SDS011;12311;50.866;4.332;2022-07-06T01:00:09;1.55;;;1.30;;
24151;SDS011;12311;50.866;4.332;2022-07-06T01:02:36;3.53;;;1.25;;
24151;SDS011;12311;50.866;4.332;2022-07-06T01:05:06;1.75;;;1.13;;
24151;SDS011;12311;50.866;4.332;2022-07-06T01:07:33;3.33;;;1.77;;
24151;SDS011;12311;50.866;4.332;2022-07-06T01:10:01;4.82;;;1.42;;
24151;SDS011;12311;50.866;4.332;2022-07-06T01:12:31;1.88;;;1.33;;
24151;SDS011;12311;50.866;4.332;2022-07-06T01:14:57;3.13;;;1.08;;
24151;SDS011;12311;50.866;4.332;2022-07-06T01:17:22;5.68;;;1.77;;
24151;SDS011;12311;50.866;4.332;2022-07-06T01:19:49;1.67;;;1.10;;
24151;SDS011;12311;50.866;4.332;2022-07-06T01:22:15;2.20;;;1.33;;
24151;SDS011;12311;50.866;4.332;2022-07-06T01:24:40;3.60;;;1.33;;
24151;SDS011;12311;50.866;4.332;2022-07-06T01:27:06;1.45;;;1.33;;
24151;SDS011;12311;50.866;4.332;2022-07-06T01:29:32;1.75;;;1.50;;
24151;SDS011;12311;50.866;4.332;2022-07-06T01:31:59;5.68;;;1.42;;
24151;SDS011;12311;50.866;4.332;2022-07-06T01:34:26;1.60;;;1.20;;
24151;SDS011;12311;50.866;4.332;2022-07-06T01:36:51;1.73;;;1.10;;
24151;SDS011;12311;50.866;4.332;2022-07-06T01:39:17;2.72;;;1.33;;
24151;SDS011;12311;50.866;4.332;2022-07-06T01:41:43;1.77;;;1.13;;
24151;SDS011;12311;50.866;4.332;2022-07-06T01:44:09;1.67;;;1.27;;
24151;SDS011;12311;50.866;4.332;2022-07-06T01:46:35;2.55;;;1.30;;
24151;SDS011;12311;50.866;4.332;2022-07-06T01:49:00;4.85;;;1.42;;
24151;SDS011;12311;50.866;4.332;2022-07-06T01:51:26;2.88;;;1.55;;
24151;SDS011;12311;50.866;4.332;2022-07-06T01:53:52;1.80;;;1.27;;
24151;SDS011;12311;50.866;4.332;2022-07-06T01:56:18;3.22;;;1.50;;
24151;SDS011;12311;50.866;4.332;2022-07-06T01:58:45;2.53;;;1.50;;
24151;SDS011;12311;50.866;4.332;2022-07-06T02:01:12;3.85;;;1.17;;
24151;SDS011;12311;50.866;4.332;2022-07-06T02:03:39;2.92;;;1.42;;
24151;SDS011;12311;50.866;4.332;2022-07-06T02:06:05;3.00;;;1.50;;
24151;SDS011;12311;50.866;4.332;2022-07-06T02:08:32;4.13;;;1.38;;
24151;SDS011;12311;50.866;4.332;2022-07-06T02:10:58;5.40;;;1.58;;
24151;SDS011;12311;50.866;4.332;2022-07-06T02:13:24;5.28;;;1.92;;
24151;SDS011;12311;50.866;4.332;2022-07-06T02:15:50;2.10;;;1.30;;
24151;SDS011;12311;50.866;4.332;2022-07-06T02:18:16;4.78;;;1.83;;
24151;SDS011;12311;50.866;4.332;2022-07-06T02:20:41;2.47;;;1.40;;
24151;SDS011;12311;50.866;4.332;2022-07-06T02:23:07;6.07;;;1.40;;
24151;SDS011;12311;50.866;4.332;2022-07-06T02:25:33;3.85;;;1.33;;
24151;SDS011;12311;50.866;4.332;2022-07-06T02:27:58;3.47;;;1.50;;
24151;SDS011;12311;50.866;4.332;2022-07-06T02:30:24;1.48;;;1.00;;
24151;SDS011;12311;50.866;4.332;2022-07-06T02:32:50;2.38;;;1.80;;
24151;SDS011;12311;50.866;4.332;2022-07-06T02:35:15;2.63;;;1.45;;
24151;SDS011;12311;50.866;4.332;2022-07-06T02:37:41;4.65;;;1.75;;
24151;SDS011;12311;50.866;4.332;2022-07-06T02:40:07;6.78;;;1.90;;
24151;SDS011;12311;50.866;4.332;2022-07-06T02:42:33;2.22;;;1.40;;
24151;SDS011;12311;50.866;4.332;2022-07-06T02:44:59;2.88;;;1.80;;
24151;SDS011;12311;50.866;4.332;2022-07-06T02:47:24;4.55;;;1.33;;
24151;SDS011;12311;50.866;4.332;2022-07-06T02:49:51;2.75;;;1.15;;
24151;SDS011;12311;50.866;4.332;2022-07-06T02:52:17;3.83;;;1.55;;
24151;SDS011;12311;50.866;4.332;2022-07-06T02:54:43;2.45;;;1.38;;
24151;SDS011;12311;50.866;4.332;2022-07-06T02:57:09;3.90;;;1.63;;
24151;SDS011;12311;50.866;4.332;2022-07-06T02:59:34;2.83;;;1.60;;
24151;SDS011;12311;50.866;4.332;2022-07-06T03:02:01;3.22;;;1.77;;
24151;SDS011;12311;50.866;4.332;2022-07-06T03:04:28;2.85;;;1.77;;
24151;SDS011;12311;50.866;4.332;2022-07-06T03:06:53;3.00;;;1.98;;
24151;SDS011;12311;50.866;4.332;2022-07-06T03:09:19;2.35;;;1.55;;
24151;SDS011;12311;50.866;4.332;2022-07-06T03:11:45;5.15;;;2.88;;
24151;SDS011;12311;50.866;4.332;2022-07-06T03:14:10;10.15;;;2.83;;
24151;SDS011;12311;50.866;4.332;2022-07-06T03:16:36;11.30;;;2.63;;
24151;SDS011;12311;50.866;4.332;2022-07-06T03:19:01;7.82;;;2.70;;
24151;SDS011;12311;50.866;4.332;2022-07-06T03:21:27;7.65;;;2.05;;
24151;SDS011;12311;50.866;4.332;2022-07-06T03:23:53;9.98;;;2.90;;
24151;SDS011;12311;50.866;4.332;2022-07-06T03:26:18;5.97;;;2.83;;
24151;SDS011;12311;50.866;4.332;2022-07-06T03:28:44;5.43;;;3.13;;
24151;SDS011;12311;50.866;4.332;2022-07-06T03:31:10;10.55;;;4.82;;
24151;SDS011;12311;50.866;4.332;2022-07-06T03:33:35;15.50;;;7.90;;
24151;SDS011;12311;50.866;4.332;2022-07-06T03:36:01;8.60;;;3.25;;
24151;SDS011;12311;50.866;4.332;2022-07-06T03:38:27;4.07;;;2.17;;
24151;SDS011;12311;50.866;4.332;2022-07-06T03:40:52;4.30;;;2.35;;
24151;SDS011;12311;50.866;4.332;2022-07-06T03:43:18;6.07;;;2.88;;
24151;SDS011;12311;50.866;4.332;2022-07-06T03:45:44;3.85;;;1.67;;
24151;SDS011;12311;50.866;4.332;2022-07-06T03:48:09;2.75;;;1.80;;
24151;SDS011;12311;50.866;4.332;2022-07-06T03:50:35;4.18;;;1.95;;
24151;SDS011;12311;50.866;4.332;2022-07-06T03:53:01;2.70;;;1.45;;
24151;SDS011;12311;50.866;4.332;2022-07-06T03:55:27;2.75;;;1.33;;
24151;SDS011;12311;50.866;4.332;2022-07-06T03:57:52;3.92;;;1.60;;
24151;SDS011;12311;50.866;4.332;2022-07-06T04:00:18;1.60;;;1.27;;
24151;SDS011;12311;50.866;4.332;2022-07-06T04:02:44;3.05;;;1.55;;
24151;SDS011;12311;50.866;4.332;2022-07-06T04:05:09;3.90;;;1.38;;
24151;SDS011;12311;50.866;4.332;2022-07-06T04:07:35;6.15;;;2.08;;
24151;SDS011;12311;50.866;4.332;2022-07-06T04:10:00;2.65;;;1.55;;
24151;SDS011;12311;50.866;4.332;2022-07-06T04:12:26;4.13;;;1.92;;
24151;SDS011;12311;50.866;4.332;2022-07-06T04:14:52;5.78;;;1.70;;
24151;SDS011;12311;50.866;4.332;2022-07-06T04:17:20;6.10;;;2.40;;
24151;SDS011;12311;50.866;4.332;2022-07-06T04:20:04;10.82;;;2.65;;
24151;SDS011;12311;50.866;4.332;2022-07-06T04:22:30;6.55;;;2.83;;
24151;SDS011;12311;50.866;4.332;2022-07-06T04:24:56;3.20;;;1.60;;
24151;SDS011;12311;50.866;4.332;2022-07-06T04:27:21;3.00;;;1.88;;
24151;SDS011;12311;50.866;4.332;2022-07-06T04:29:47;3.92;;;2.08;;
24151;SDS011;12311;50.866;4.332;2022-07-06T04:32:13;4.35;;;2.53;;
24151;SDS011;12311;50.866;4.332;2022-07-06T04:34:38;3.15;;;1.60;;
24151;SDS011;12311;50.866;4.332;2022-07-06T04:37:04;2.50;;;1.42;;
24151;SDS011;12311;50.866;4.332;2022-07-06T04:39:29;4.70;;;1.90;;
24151;SDS011;12311;50.866;4.332;2022-07-06T04:41:56;3.75;;;1.98;;
24151;SDS011;12311;50.866;4.332;2022-07-06T04:44:22;2.97;;;1.85;;
24151;SDS011;12311;50.866;4.332;2022-07-06T04:46:48;3.90;;;1.90;;
24151;SDS011;12311;50.866;4.332;2022-07-06T04:49:13;3.92;;;2.00;;
24151;SDS011;12311;50.866;4.332;2022-07-06T04:51:39;2.78;;;1.65;;
24151;SDS011;12311;50.866;4.332;2022-07-06T04:54:05;5.53;;;2.13;;
24151;SDS011;12311;50.866;4.332;2022-07-06T04:56:30;4.18;;;2.28;;
24151;SDS011;12311;50.866;4.332;2022-07-06T04:58:56;3.75;;;2.35;;
24151;SDS011;12311;50.866;4.332;2022-07-06T05:01:22;3.42;;;1.75;;
24151;SDS011;12311;50.866;4.332;2022-07-06T05:03:47;4.30;;;2.25;;
24151;SDS011;12311;50.866;4.332;2022-07-06T05:06:13;3.45;;;1.90;;
24151;SDS011;12311;50.866;4.332;2022-07-06T05:08:39;3.97;;;1.70;;
24151;SDS011;12311;50.866;4.332;2022-07-06T05:11:05;8.00;;;2.60;;
24151;SDS011;12311;50.866;4.332;2022-07-06T05:13:30;4.18;;;2.17;;
24151;SDS011;12311;50.866;4.332;2022-07-06T05:15:56;4.30;;;2.78;;
24151;SDS011;12311;50.866;4.332;2022-07-06T05:18:22;7.53;;;2.38;;
24151;SDS011;12311;50.866;4.332;2022-07-06T05:20:47;3.28;;;1.92;;
24151;SDS011;12311;50.866;4.332;2022-07-06T05:23:13;7.20;;;2.67;;
24151;SDS011;12311;50.866;4.332;2022-07-06T05:25:38;5.78;;;2.67;;
24151;SDS011;12311;50.866;4.332;2022-07-06T05:28:04;9.82;;;2.95;;
24151;SDS011;12311;50.866;4.332;2022-07-06T05:30:30;6.38;;;2.45;;
24151;SDS011;12311;50.866;4.332;2022-07-06T05:32:55;7.35;;;3.10;;
24151;SDS011;12311;50.866;4.332;2022-07-06T05:35:21;3.67;;;1.90;;
24151;SDS011;12311;50.866;4.332;2022-07-06T05:37:47;6.47;;;2.15;;
24151;SDS011;12311;50.866;4.332;2022-07-06T05:40:12;6.18;;;2.78;;
24151;SDS011;12311;50.866;4.332;2022-07-06T05:42:38;3.28;;;1.80;;
24151;SDS011;12311;50.866;4.332;2022-07-06T05:45:03;4.88;;;2.10;;
24151;SDS011;12311;50.866;4.332;2022-07-06T05:47:30;7.47;;;2.50;;
24151;SDS011;12311;50.866;4.332;2022-07-06T05:50:15;5.07;;;2.10;;
24151;SDS011;12311;50.866;4.332;2022-07-06T05:52:44;8.18;;;2.80;;
24151;SDS011;12311;50.866;4.332;2022-07-06T05:55:19;3.97;;;2.25;;
24151;SDS011;12311;50.866;4.332;2022-07-06T05:57:45;9.18;;;2.58;;
24151;SDS011;12311;50.866;4.332;2022-07-06T06:00:11;4.78;;;1.73;;
24151;SDS011;12311;50.866;4.332;2022-07-06T06:02:40;5.30;;;2.15;;
24151;SDS011;12311;50.866;4.332;2022-07-06T06:05:08;4.60;;;2.25;;
24151;SDS011;12311;50.866;4.332;2022-07-06T06:07:38;3.42;;;1.55;;
24151;SDS011;12311;50.866;4.332;2022-07-06T06:10:04;3.88;;;1.98;;
24151;SDS011;12311;50.866;4.332;2022-07-06T06:12:31;5.10;;;2.13;;
24151;SDS011;12311;50.866;4.332;2022-07-06T06:14:57;6.22;;;2.10;;
24151;SDS011;12311;50.866;4.332;2022-07-06T06:17:23;4.97;;;2.55;;
24151;SDS011;12311;50.866;4.332;2022-07-06T06:19:48;8.00;;;3.22;;
24151;SDS011;12311;50.866;4.332;2022-07-06T06:22:14;2.80;;;1.85;;
24151;SDS011;12311;50.866;4.332;2022-07-06T06:24:40;2.55;;;1.55;;
24151;SDS011;12311;50.866;4.332;2022-07-06T06:27:05;7.05;;;2.58;;
24151;SDS011;12311;50.866;4.332;2022-07-06T06:29:31;8.52;;;2.10;;
24151;SDS011;12311;50.866;4.332;2022-07-06T06:31:57;7.35;;;2.13;;
24151;SDS011;12311;50.866;4.332;2022-07-06T06:34:23;3.95;;;2.03;;
24151;SDS011;12311;50.866;4.332;2022-07-06T06:36:49;4.88;;;1.85;;
24151;SDS011;12311;50.866;4.332;2022-07-06T06:39:15;4.07;;;1.50;;
24151;SDS011;12311;50.866;4.332;2022-07-06T06:41:40;3.95;;;1.77;;
24151;SDS011;12311;50.866;4.332;2022-07-06T06:44:06;6.32;;;1.98;;
24151;SDS011;12311;50.866;4.332;2022-07-06T06:46:32;3.75;;;1.70;;
24151;SDS011;12311;50.866;4.332;2022-07-06T06:48:57;2.25;;;1.25;;
24151;SDS011;12311;50.866;4.332;2022-07-06T06:51:23;4.80;;;1.73;;
24151;SDS011;12311;50.866;4.332;2022-07-06T06:53:49;3.95;;;1.80;;
24151;SDS011;12311;50.866;4.332;2022-07-06T06:56:14;3.58;;;1.38;;
24151;SDS011;12311;50.866;4.332;2022-07-06T06:58:40;3.95;;;1.70;;
24151;SDS011;12311;50.866;4.332;2022-07-06T07:01:06;2.38;;;1.25;;
24151;SDS011;12311;50.866;4.332;2022-07-06T07:03:31;2.65;;;1.20;;
24151;SDS011;12311;50.866;4.332;2022-07-06T07:05:57;3.10;;;1.45;;
24151;SDS011;12311;50.866;4.332;2022-07-06T07:08:23;1.88;;;1.10;;
24151;SDS011;12311;50.866;4.332;2022-07-06T07:10:48;1.65;;;0.82;;
24151;SDS011;12311;50.866;4.332;2022-07-06T07:13:14;1.48;;;0.57;;
24151;SDS011;12311;50.866;4.332;2022-07-06T07:15:40;0.95;;;0.63;;
24151;SDS011;12311;50.866;4.332;2022-07-06T07:18:08;2.47;;;1.10;;
24151;SDS011;12311;50.866;4.332;2022-07-06T07:20:34;2.83;;;1.35;;
24151;SDS011;12311;50.866;4.332;2022-07-06T07:23:00;2.10;;;0.90;;
24151;SDS011;12311;50.866;4.332;2022-07-06T07:25:26;2.20;;;1.00;;
24151;SDS011;12311;50.866;4.332;2022-07-06T07:27:53;5.03;;;1.40;;
24151;SDS011;12311;50.866;4.332;2022-07-06T07:30:19;1.52;;;0.80;;
24151;SDS011;12311;50.866;4.332;2022-07-06T07:32:45;1.42;;;0.98;;
24151;SDS011;12311;50.866;4.332;2022-07-06T07:35:11;1.65;;;0.95;;
24151;SDS011;12311;50.866;4.332;2022-07-06T07:37:37;3.53;;;0.80;;
24151;SDS011;12311;50.866;4.332;2022-07-06T07:40:03;1.23;;;0.80;;
24151;SDS011;12311;50.866;4.332;2022-07-06T07:42:30;1.27;;;0.70;;
24151;SDS011;12311;50.866;4.332;2022-07-06T07:44:56;1.42;;;0.98;;
24151;SDS011;12311;50.866;4.332;2022-07-06T07:47:21;1.77;;;0.70;;
24151;SDS011;12311;50.866;4.332;2022-07-06T07:49:47;4.85;;;1.20;;
24151;SDS011;12311;50.866;4.332;2022-07-06T07:52:13;2.85;;;0.70;;
24151;SDS011;12311;50.866;4.332;2022-07-06T07:54:38;2.25;;;1.23;;
24151;SDS011;12311;50.866;4.332;2022-07-06T07:57:04;2.22;;;0.82;;
24151;SDS011;12311;50.866;4.332;2022-07-06T07:59:30;2.28;;;0.73;;
24151;SDS011;12311;50.866;4.332;2022-07-06T08:01:55;1.77;;;0.95;;
24151;SDS011;12311;50.866;4.332;2022-07-06T08:04:21;1.05;;;0.85;;
24151;SDS011;12311;50.866;4.332;2022-07-06T08:06:47;2.55;;;0.98;;
24151;SDS011;12311;50.866;4.332;2022-07-06T08:09:12;2.17;;;0.73;;
24151;SDS011;12311;50.866;4.332;2022-07-06T08:11:38;1.75;;;0.95;;
24151;SDS011;12311;50.866;4.332;2022-07-06T08:14:04;1.17;;;0.90;;
24151;SDS011;12311;50.866;4.332;2022-07-06T08:16:30;3.22;;;0.90;;
24151;SDS011;12311;50.866;4.332;2022-07-06T08:18:56;1.02;;;0.70;;
24151;SDS011;12311;50.866;4.332;2022-07-06T08:21:22;1.75;;;0.65;;
24151;SDS011;12311;50.866;4.332;2022-07-06T08:23:48;1.15;;;0.80;;
24151;SDS011;12311;50.866;4.332;2022-07-06T08:26:14;1.27;;;0.88;;
24151;SDS011;12311;50.866;4.332;2022-07-06T08:28:39;2.97;;;1.10;;
24151;SDS011;12311;50.866;4.332;2022-07-06T08:31:05;4.22;;;0.82;;
24151;SDS011;12311;50.866;4.332;2022-07-06T08:33:31;1.38;;;0.90;;
24151;SDS011;12311;50.866;4.332;2022-07-06T08:35:57;7.35;;;1.70;;
24151;SDS011;12311;50.866;4.332;2022-07-06T08:38:22;0.88;;;0.68;;
24151;SDS011;12311;50.866;4.332;2022-07-06T08:40:48;2.65;;;1.38;;
24151;SDS011;12311;50.866;4.332;2022-07-06T08:43:15;2.08;;;1.27;;
24151;SDS011;12311;50.866;4.332;2022-07-06T08:45:41;2.58;;;1.10;;
24151;SDS011;12311;50.866;4.332;2022-07-06T08:48:09;3.40;;;1.15;;
24151;SDS011;12311;50.866;4.332;2022-07-06T08:50:36;3.25;;;1.33;;
24151;SDS011;12311;50.866;4.332;2022-07-06T08:53:02;3.35;;;1.10;;
24151;SDS011;12311;50.866;4.332;2022-07-06T08:55:28;0.88;;;0.70;;
24151;SDS011;12311;50.866;4.332;2022-07-06T08:57:54;2.25;;;1.00;;
24151;SDS011;12311;50.866;4.332;2022-07-06T09:00:21;3.53;;;1.20;;
24151;SDS011;12311;50.866;4.332;2022-07-06T09:02:50;2.30;;;1.15;;
24151;SDS011;12311;50.866;4.332;2022-07-06T09:05:18;1.90;;;1.23;;
24151;SDS011;12311;50.866;4.332;2022-07-06T09:07:51;4.45;;;1.10;;
24151;SDS011;12311;50.866;4.332;2022-07-06T09:10:18;3.17;;;1.20;;
24151;SDS011;12311;50.866;4.332;2022-07-06T09:12:46;1.40;;;1.00;;
24151;SDS011;12311;50.866;4.332;2022-07-06T09:15:12;2.22;;;1.13;;
24151;SDS011;12311;50.866;4.332;2022-07-06T09:17:39;5.68;;;1.85;;
24151;SDS011;12311;50.866;4.332;2022-07-06T09:20:09;3.75;;;1.15;;
24151;SDS011;12311;50.866;4.332;2022-07-06T09:22:36;4.28;;;0.80;;
24151;SDS011;12311;50.866;4.332;2022-07-06T09:25:09;1.67;;;1.23;;
24151;SDS011;12311;50.866;4.332;2022-07-06T09:27:43;2.03;;;1.10;;
24151;SDS011;12311;50.866;4.332;2022-07-06T09:30:12;1.77;;;0.90;;
24151;SDS011;12311;50.866;4.332;2022-07-06T09:32:40;2.03;;;1.10;;
24151;SDS011;12311;50.866;4.332;2022-07-06T09:35:07;2.45;;;1.13;;
24151;SDS011;12311;50.866;4.332;2022-07-06T09:37:43;1.35;;;0.85;;
24151;SDS011;12311;50.866;4.332;2022-07-06T09:40:16;2.08;;;0.70;;
24151;SDS011;12311;50.866;4.332;2022-07-06T09:42:43;3.15;;;1.35;;
24151;SDS011;12311;50.866;4.332;2022-07-06T09:45:09;1.42;;;0.80;;
24151;SDS011;12311;50.866;4.332;2022-07-06T09:47:35;3.10;;;1.23;;
24151;SDS011;12311;50.866;4.332;2022-07-06T09:50:04;1.52;;;0.90;;
24151;SDS011;12311;50.866;4.332;2022-07-06T09:52:33;1.20;;;0.82;;
24151;SDS011;12311;50.866;4.332;2022-07-06T09:54:59;1.17;;;0.90;;
24151;SDS011;12311;50.866;4.332;2022-07-06T09:57:25;3.28;;;0.82;;
24151;SDS011;12311;50.866;4.332;2022-07-06T09:59:51;2.15;;;0.80;;
24151;SDS011;12311;50.866;4.332;2022-07-06T10:02:17;1.40;;;0.73;;
24151;SDS011;12311;50.866;4.332;2022-07-06T10:04:45;1.45;;;0.85;;
24151;SDS011;12311;50.866;4.332;2022-07-06T10:07:11;0.80;;;0.60;;
24151;SDS011;12311;50.866;4.332;2022-07-06T10:09:38;1.38;;;0.80;;
24151;SDS011;12311;50.866;4.332;2022-07-06T10:12:06;6.85;;;1.60;;
24151;SDS011;12311;50.866;4.332;2022-07-06T10:14:37;1.50;;;0.73;;
24151;SDS011;12311;50.866;4.332;2022-07-06T10:17:05;1.40;;;0.93;;
24151;SDS011;12311;50.866;4.332;2022-07-06T10:19:32;2.40;;;1.00;;
24151;SDS011;12311;50.866;4.332;2022-07-06T10:21:58;2.42;;;1.10;;
24151;SDS011;12311;50.866;4.332;2022-07-06T10:24:25;2.13;;;0.93;;
24151;SDS011;12311;50.866;4.332;2022-07-06T10:26:52;3.75;;;0.93;;
24151;SDS011;12311;50.866;4.332;2022-07-06T10:29:19;1.15;;;0.73;;
24151;SDS011;12311;50.866;4.332;2022-07-06T10:31:46;1.45;;;0.80;;
24151;SDS011;12311;50.866;4.332;2022-07-06T10:34:14;3.08;;;1.23;;
24151;SDS011;12311;50.866;4.332;2022-07-06T10:36:44;1.05;;;0.77;;
24151;SDS011;12311;50.866;4.332;2022-07-06T10:39:13;2.90;;;1.00;;
24151;SDS011;12311;50.866;4.332;2022-07-06T10:41:57;1.42;;;0.80;;
24151;SDS011;12311;50.866;4.332;2022-07-06T10:44:24;3.80;;;1.10;;
24151;SDS011;12311;50.866;4.332;2022-07-06T10:46:51;3.50;;;1.20;;
24151;SDS011;12311;50.866;4.332;2022-07-06T10:49:18;2.88;;;1.33;;
24151;SDS011;12311;50.866;4.332;2022-07-06T10:51:44;1.70;;;0.80;;
24151;SDS011;12311;50.866;4.332;2022-07-06T10:54:09;3.22;;;0.90;;
24151;SDS011;12311;50.866;4.332;2022-07-06T10:56:36;1.02;;;0.70;;
24151;SDS011;12311;50.866;4.332;2022-07-06T10:59:10;3.85;;;1.60;;
24151;SDS011;12311;50.866;4.332;2022-07-06T11:04:46;7.05;;;0.98;;
24151;SDS011;12311;50.866;4.332;2022-07-06T11:07:14;1.55;;;1.00;;
24151;SDS011;12311;50.866;4.332;2022-07-06T11:09:42;1.42;;;1.00;;
24151;SDS011;12311;50.866;4.332;2022-07-06T11:12:22;4.38;;;0.80;;
24151;SDS011;12311;50.866;4.332;2022-07-06T11:14:49;1.90;;;1.10;;
24151;SDS011;12311;50.866;4.332;2022-07-06T11:17:16;1.63;;;1.20;;
24151;SDS011;12311;50.866;4.332;2022-07-06T11:19:55;1.52;;;1.02;;
24151;SDS011;12311;50.866;4.332;2022-07-06T11:22:23;1.48;;;0.80;;
24151;SDS011;12311;50.866;4.332;2022-07-06T11:24:49;3.97;;;1.35;;
24151;SDS011;12311;50.866;4.332;2022-07-06T11:27:16;3.45;;;1.63;;
24151;SDS011;12311;50.866;4.332;2022-07-06T11:29:42;1.33;;;0.70;;
24151;SDS011;12311;50.866;4.332;2022-07-06T11:32:10;3.15;;;1.08;;
24151;SDS011;12311;50.866;4.332;2022-07-06T11:34:39;3.15;;;0.80;;
24151;SDS011;12311;50.866;4.332;2022-07-06T11:37:13;4.00;;;1.00;;
24151;SDS011;12311;50.866;4.332;2022-07-06T11:39:40;1.92;;;1.33;;
24151;SDS011;12311;50.866;4.332;2022-07-06T11:42:08;0.85;;;0.60;;
24151;SDS011;12311;50.866;4.332;2022-07-06T11:44:38;2.20;;;0.70;;
24151;SDS011;12311;50.866;4.332;2022-07-06T11:47:04;1.35;;;0.70;;
24151;SDS011;12311;50.866;4.332;2022-07-06T11:49:31;1.10;;;0.63;;
24151;SDS011;12311;50.866;4.332;2022-07-06T11:51:59;2.28;;;0.88;;
24151;SDS011;12311;50.866;4.332;2022-07-06T11:54:25;2.15;;;0.90;;
24151;SDS011;12311;50.866;4.332;2022-07-06T11:56:52;1.95;;;0.95;;
24151;SDS011;12311;50.866;4.332;2022-07-06T11:59:27;0.75;;;0.60;;
24151;SDS011;12311;50.866;4.332;2022-07-06T12:01:59;2.40;;;1.00;;
24151;SDS011;12311;50.866;4.332;2022-07-06T12:04:25;1.02;;;0.60;;
24151;SDS011;12311;50.866;4.332;2022-07-06T12:06:50;1.63;;;1.17;;
24151;SDS011;12311;50.866;4.332;2022-07-06T12:09:16;3.33;;;1.10;;
24151;SDS011;12311;50.866;4.332;2022-07-06T12:11:45;2.03;;;0.98;;
24151;SDS011;12311;50.866;4.332;2022-07-06T12:14:15;1.23;;;0.75;;
24151;SDS011;12311;50.866;4.332;2022-07-06T12:16:43;4.30;;;1.30;;
24151;SDS011;12311;50.866;4.332;2022-07-06T12:19:10;1.73;;;0.80;;
24151;SDS011;12311;50.866;4.332;2022-07-06T12:21:41;2.20;;;0.82;;
24151;SDS011;12311;50.866;4.332;2022-07-06T12:24:18;2.17;;;0.70;;
24151;SDS011;12311;50.866;4.332;2022-07-06T12:26:44;0.98;;;0.82;;
24151;SDS011;12311;50.866;4.332;2022-07-06T12:29:10;1.95;;;0.80;;
24151;SDS011;12311;50.866;4.332;2022-07-06T12:31:40;1.65;;;0.60;;
24151;SDS011;12311;50.866;4.332;2022-07-06T12:34:14;0.63;;;0.50;;
24151;SDS011;12311;50.866;4.332;2022-07-06T12:36:42;1.50;;;0.55;;
24151;SDS011;12311;50.866;4.332;2022-07-06T12:39:22;3.55;;;1.10;;
24151;SDS011;12311;50.866;4.332;2022-07-06T12:41:50;3.42;;;0.90;;
24151;SDS011;12311;50.866;4.332;2022-07-06T12:44:18;1.38;;;0.93;;
24151;SDS011;12311;50.866;4.332;2022-07-06T12:46:48;3.80;;;1.48;;
24151;SDS011;12311;50.866;4.332;2022-07-06T12:54:35;0.60;;;0.50;;
24151;SDS011;12311;50.866;4.332;2022-07-06T12:57:22;2.55;;;1.15;;
24151;SDS011;12311;50.866;4.332;2022-07-06T13:02:25;1.20;;;0.60;;
24151;SDS011;12311;50.866;4.332;2022-07-06T13:07:35;1.20;;;1.00;;
24151;SDS011;12311;50.866;4.332;2022-07-06T13:10:03;2.67;;;1.45;;
24151;SDS011;12311;50.866;4.332;2022-07-06T13:12:30;6.32;;;1.30;;
24151;SDS011;12311;50.866;4.332;2022-07-06T13:14:56;2.35;;;1.02;;
24151;SDS011;12311;50.866;4.332;2022-07-06T13:17:22;2.63;;;1.05;;
24151;SDS011;12311;50.866;4.332;2022-07-06T13:19:48;4.75;;;1.58;;
24151;SDS011;12311;50.866;4.332;2022-07-06T13:22:14;1.33;;;1.05;;
24151;SDS011;12311;50.866;4.332;2022-07-06T13:24:40;1.70;;;0.90;;
24151;SDS011;12311;50.866;4.332;2022-07-06T13:27:06;1.75;;;0.90;;
24151;SDS011;12311;50.866;4.332;2022-07-06T13:29:32;3.55;;;1.00;;
24151;SDS011;12311;50.866;4.332;2022-07-06T13:31:57;1.58;;;0.80;;
24151;SDS011;12311;50.866;4.332;2022-07-06T13:34:23;1.45;;;0.77;;
24151;SDS011;12311;50.866;4.332;2022-07-06T13:36:49;1.27;;;0.90;;
24151;SDS011;12311;50.866;4.332;2022-07-06T13:39:16;1.55;;;0.70;;
24151;SDS011;12311;50.866;4.332;2022-07-06T13:41:42;0.95;;;0.80;;
24151;SDS011;12311;50.866;4.332;2022-07-06T13:44:07;4.68;;;0.90;;
24151;SDS011;12311;50.866;4.332;2022-07-06T13:46:34;1.00;;;0.90;;
24151;SDS011;12311;50.866;4.332;2022-07-06T13:49:04;1.00;;;0.90;;
24151;SDS011;12311;50.866;4.332;2022-07-06T13:51:30;3.35;;;0.80;;
24151;SDS011;12311;50.866;4.332;2022-07-06T13:53:57;1.00;;;0.70;;
24151;SDS011;12311;50.866;4.332;2022-07-06T13:56:24;1.20;;;0.90;;
24151;SDS011;12311;50.866;4.332;2022-07-06T13:58:50;1.63;;;1.17;;
24151;SDS011;12311;50.866;4.332;2022-07-06T14:01:16;2.55;;;0.82;;
24151;SDS011;12311;50.866;4.332;2022-07-06T14:03:42;1.40;;;0.90;;
24151;SDS011;12311;50.866;4.332;2022-07-06T14:06:08;1.33;;;1.13;;
24151;SDS011;12311;50.866;4.332;2022-07-06T14:08:35;5.25;;;1.15;;
24151;SDS011;12311;50.866;4.332;2022-07-06T14:11:02;1.00;;;0.70;;
24151;SDS011;12311;50.866;4.332;2022-07-06T14:13:29;0.88;;;0.77;;
24151;SDS011;12311;50.866;4.332;2022-07-06T14:15:55;8.48;;;1.23;;
24151;SDS011;12311;50.866;4.332;2022-07-06T14:18:21;0.98;;;0.75;;
24151;SDS011;12311;50.866;4.332;2022-07-06T14:20:48;1.90;;;0.85;;
24151;SDS011;12311;50.866;4.332;2022-07-06T14:23:14;1.00;;;0.70;;
24151;SDS011;12311;50.866;4.332;2022-07-06T14:25:40;2.17;;;0.73;;
24151;SDS011;12311;50.866;4.332;2022-07-06T14:28:07;1.25;;;0.70;;
24151;SDS011;12311;50.866;4.332;2022-07-06T14:30:34;2.95;;;1.38;;
24151;SDS011;12311;50.866;4.332;2022-07-06T14:33:04;1.23;;;0.70;;
24151;SDS011;12311;50.866;4.332;2022-07-06T14:35:37;1.30;;;0.90;;
24151;SDS011;12311;50.866;4.332;2022-07-06T14:38:05;0.80;;;0.70;;
24151;SDS011;12311;50.866;4.332;2022-07-06T14:40:32;1.92;;;0.70;;
24151;SDS011;12311;50.866;4.332;2022-07-06T14:42:58;1.48;;;0.75;;
24151;SDS011;12311;50.866;4.332;2022-07-06T14:45:24;1.15;;;0.77;;
24151;SDS011;12311;50.866;4.332;2022-07-06T14:47:50;1.65;;;0.85;;
24151;SDS011;12311;50.866;4.332;2022-07-06T14:50:16;1.17;;;0.77;;
24151;SDS011;12311;50.866;4.332;2022-07-06T14:52:42;2.15;;;0.80;;
24151;SDS011;12311;50.866;4.332;2022-07-06T14:55:07;1.60;;;0.90;;
24151;SDS011;12311;50.866;4.332;2022-07-06T14:57:33;0.68;;;0.65;;
24151;SDS011;12311;50.866;4.332;2022-07-06T14:59:59;2.20;;;0.65;;